Lamco Airport

Jump to: basic info | weather | comments

Related pages: nearby airports | nearby navaids | notams | map

Basic information (top)

Codes: UCN GLLB
Location: lon 5.867000, lat -10.050000, elev 30 ft / 9 m msl
Status: small_airport
Scheduled airline service: no
Links: Wikipedia Mobile

Weather (top)

Current conditions for Roberts International Airport 29nm (53km) NW (rec'd 2015/03/04 02:30Z):

GLRB 040230Z 00000KT 6000 SKC 24/23 Q1011 RMK BRVC

Airport forecast for Roberts International Airport 29nm (53km) NW (rec'd 2015/03/03 18:51Z):

TAF TAF GLRB 031600Z 0318/0424 24010KT 9000 BKN018 
      BECMG 0319/0322 34007KT 8000 FM 032300 02005KT 6000 SCT015 BKN100

Latest comments (top)

No comments yet for Lamco Airport

More... (top)

See also NOTAMs and nearby airports and navaids, or visit the Lamco Airport page at the main OurAirports website..